sensor_id;sensor_type;location;lat;lon;timestamp;pressure;altitude;pressure_sealevel;temperature;humidity
56668;BME280;42542;48.360;10.958;2022-12-05T00:01:32;95826.72;;;1.43;100.00
56668;BME280;42542;48.360;10.958;2022-12-05T00:04:37;95853.88;;;1.43;100.00
56668;BME280;42542;48.360;10.958;2022-12-05T00:07:38;95851.25;;;1.43;100.00
56668;BME280;42542;48.360;10.958;2022-12-05T00:10:40;95842.84;;;1.38;100.00
56668;BME280;42542;48.360;10.958;2022-12-05T00:13:42;95849.78;;;1.39;100.00
56668;BME280;42542;48.360;10.958;2022-12-05T00:16:44;95848.25;;;1.37;100.00
56668;BME280;42542;48.360;10.958;2022-12-05T00:19:46;95852.66;;;1.36;100.00
56668;BME280;42542;48.360;10.958;2022-12-05T00:22:52;95852.03;;;1.33;100.00
56668;BME280;42542;48.360;10.958;2022-12-05T00:25:54;95854.94;;;1.30;100.00
56668;BME280;42542;48.360;10.958;2022-12-05T00:28:56;95880.16;;;1.32;100.00
56668;BME280;42542;48.360;10.958;2022-12-05T00:31:58;95854.78;;;1.31;100.00
56668;BME280;42542;48.360;10.958;2022-12-05T00:35:00;95867.25;;;1.29;100.00
56668;BME280;42542;48.360;10.958;2022-12-05T00:38:01;95865.47;;;1.30;100.00
56668;BME280;42542;48.360;10.958;2022-12-05T00:41:04;95861.72;;;1.32;100.00
56668;BME280;42542;48.360;10.958;2022-12-05T00:44:08;95861.00;;;1.30;100.00
56668;BME280;42542;48.360;10.958;2022-12-05T00:47:10;95848.69;;;1.31;100.00
56668;BME280;42542;48.360;10.958;2022-12-05T00:50:12;95854.78;;;1.31;100.00
56668;BME280;42542;48.360;10.958;2022-12-05T00:53:13;95864.47;;;1.31;100.00
56668;BME280;42542;48.360;10.958;2022-12-05T00:56:17;95876.69;;;1.32;100.00
56668;BME280;42542;48.360;10.958;2022-12-05T00:59:19;95876.94;;;1.29;100.00
56668;BME280;42542;48.360;10.958;2022-12-05T01:02:21;95888.16;;;1.31;100.00
56668;BME280;42542;48.360;10.958;2022-12-05T01:05:22;95908.84;;;1.24;100.00
56668;BME280;42542;48.360;10.958;2022-12-05T01:08:24;95914.84;;;1.26;100.00
56668;BME280;42542;48.360;10.958;2022-12-05T01:11:26;95918.31;;;1.27;100.00
56668;BME280;42542;48.360;10.958;2022-12-05T01:14:28;95916.75;;;1.24;100.00
56668;BME280;42542;48.360;10.958;2022-12-05T01:17:30;95919.63;;;1.21;100.00
56668;BME280;42542;48.360;10.958;2022-12-05T01:20:31;95921.53;;;1.19;100.00
56668;BME280;42542;48.360;10.958;2022-12-05T01:23:33;95924.34;;;1.16;100.00
56668;BME280;42542;48.360;10.958;2022-12-05T01:26:34;95932.03;;;1.19;100.00
56668;BME280;42542;48.360;10.958;2022-12-05T01:29:36;95947.84;;;1.19;100.00
56668;BME280;42542;48.360;10.958;2022-12-05T01:32:38;95958.28;;;1.21;100.00
56668;BME280;42542;48.360;10.958;2022-12-05T01:35:40;95955.25;;;1.14;100.00
56668;BME280;42542;48.360;10.958;2022-12-05T01:38:42;95955.63;;;1.21;100.00
56668;BME280;42542;48.360;10.958;2022-12-05T01:41:47;95949.53;;;1.20;100.00
56668;BME280;42542;48.360;10.958;2022-12-05T01:47:52;95957.19;;;1.23;100.00
56668;BME280;42542;48.360;10.958;2022-12-05T01:50:54;95970.69;;;1.18;100.00
56668;BME280;42542;48.360;10.958;2022-12-05T01:53:58;95985.44;;;1.21;100.00
56668;BME280;42542;48.360;10.958;2022-12-05T01:57:02;95984.59;;;1.21;100.00
56668;BME280;42542;48.360;10.958;2022-12-05T02:00:11;95989.75;;;1.22;100.00
56668;BME280;42542;48.360;10.958;2022-12-05T02:03:18;95989.63;;;1.24;100.00
56668;BME280;42542;48.360;10.958;2022-12-05T02:06:21;95991.41;;;1.23;100.00
56668;BME280;42542;48.360;10.958;2022-12-05T02:09:23;95991.41;;;1.23;100.00
56668;BME280;42542;48.360;10.958;2022-12-05T02:12:25;96001.84;;;1.25;100.00
56668;BME280;42542;48.360;10.958;2022-12-05T02:15:38;96013.22;;;1.25;100.00
56668;BME280;42542;48.360;10.958;2022-12-05T02:18:54;96018.38;;;1.27;100.00
56668;BME280;42542;48.360;10.958;2022-12-05T02:26:15;96018.16;;;1.30;100.00
56668;BME280;42542;48.360;10.958;2022-12-05T02:39:17;96016.59;;;1.27;100.00
56668;BME280;42542;48.360;10.958;2022-12-05T02:42:32;96028.91;;;1.27;100.00
56668;BME280;42542;48.360;10.958;2022-12-05T02:45:37;96019.41;;;1.24;100.00
56668;BME280;42542;48.360;10.958;2022-12-05T02:48:41;96025.53;;;1.25;100.00
56668;BME280;42542;48.360;10.958;2022-12-05T02:51:51;96025.53;;;1.25;100.00
56668;BME280;42542;48.360;10.958;2022-12-05T02:54:53;96032.69;;;1.23;100.00
56668;BME280;42542;48.360;10.958;2022-12-05T02:57:59;96034.50;;;1.22;100.00
56668;BME280;42542;48.360;10.958;2022-12-05T03:01:02;96031.88;;;1.22;100.00
56668;BME280;42542;48.360;10.958;2022-12-05T03:04:06;96041.31;;;1.25;100.00
56668;BME280;42542;48.360;10.958;2022-12-05T03:07:11;96040.47;;;1.24;100.00
56668;BME280;42542;48.360;10.958;2022-12-05T03:10:18;96029.09;;;1.24;100.00
56668;BME280;42542;48.360;10.958;2022-12-05T03:13:40;96035.31;;;1.23;100.00
56668;BME280;42542;48.360;10.958;2022-12-05T03:16:48;96051.13;;;1.23;100.00
56668;BME280;42542;48.360;10.958;2022-12-05T03:20:24;96044.19;;;1.22;100.00
56668;BME280;42542;48.360;10.958;2022-12-05T03:23:37;96043.47;;;1.20;100.00
56668;BME280;42542;48.360;10.958;2022-12-05T03:27:20;96056.53;;;1.21;100.00
56668;BME280;42542;48.360;10.958;2022-12-05T03:30:24;96054.81;;;1.20;100.00
56668;BME280;42542;48.360;10.958;2022-12-05T03:33:28;96042.50;;;1.21;100.00
56668;BME280;42542;48.360;10.958;2022-12-05T03:36:37;96066.91;;;1.23;100.00
56668;BME280;42542;48.360;10.958;2022-12-05T03:39:43;96077.34;;;1.24;100.00
56668;BME280;42542;48.360;10.958;2022-12-05T03:42:53;96067.75;;;1.23;100.00
56668;BME280;42542;48.360;10.958;2022-12-05T03:46:04;96067.44;;;1.28;100.00
56668;BME280;42542;48.360;10.958;2022-12-05T03:49:26;96082.16;;;1.30;100.00
56668;BME280;42542;48.360;10.958;2022-12-05T03:53:08;96084.00;;;1.30;100.00
56668;BME280;42542;48.360;10.958;2022-12-05T03:56:24;96078.72;;;1.30;100.00
56668;BME280;42542;48.360;10.958;2022-12-05T03:59:38;96080.38;;;1.31;100.00
56668;BME280;42542;48.360;10.958;2022-12-05T04:05:58;96073.13;;;1.34;100.00
56668;BME280;42542;48.360;10.958;2022-12-05T04:09:08;96071.84;;;1.40;100.00
56668;BME280;42542;48.360;10.958;2022-12-05T04:12:28;96074.13;;;1.44;100.00
56668;BME280;42542;48.360;10.958;2022-12-05T04:15:31;96072.22;;;1.46;100.00
56668;BME280;42542;48.360;10.958;2022-12-05T04:19:00;96077.50;;;1.46;100.00
56668;BME280;42542;48.360;10.958;2022-12-05T04:22:03;96072.13;;;1.48;100.00
56668;BME280;42542;48.360;10.958;2022-12-05T04:25:08;96066.75;;;1.49;100.00
56668;BME280;42542;48.360;10.958;2022-12-05T04:28:48;96082.31;;;1.52;100.00
56668;BME280;42542;48.360;10.958;2022-12-05T04:32:00;96084.75;;;1.55;100.00
56668;BME280;42542;48.360;10.958;2022-12-05T04:35:16;96076.59;;;1.58;100.00
56668;BME280;42542;48.360;10.958;2022-12-05T04:38:27;96066.81;;;1.61;100.00
56668;BME280;42542;48.360;10.958;2022-12-05T04:41:36;96064.91;;;1.63;100.00
56668;BME280;42542;48.360;10.958;2022-12-05T04:45:04;96068.28;;;1.65;100.00
56668;BME280;42542;48.360;10.958;2022-12-05T04:48:11;96070.69;;;1.68;100.00
56668;BME280;42542;48.360;10.958;2022-12-05T04:51:17;96067.09;;;1.69;100.00
56668;BME280;42542;48.360;10.958;2022-12-05T04:54:28;96069.63;;;1.70;100.00
56668;BME280;42542;48.360;10.958;2022-12-05T04:57:41;96075.00;;;1.69;100.00
56668;BME280;42542;48.360;10.958;2022-12-05T05:04:05;96079.81;;;1.75;100.00
56668;BME280;42542;48.360;10.958;2022-12-05T05:07:09;96073.50;;;1.77;100.00
56668;BME280;42542;48.360;10.958;2022-12-05T05:10:15;96078.53;;;1.80;100.00
56668;BME280;42542;48.360;10.958;2022-12-05T05:13:18;96079.25;;;1.82;100.00
56668;BME280;42542;48.360;10.958;2022-12-05T05:16:23;96083.59;;;1.83;100.00
56668;BME280;42542;48.360;10.958;2022-12-05T05:19:25;96077.25;;;1.86;100.00
56668;BME280;42542;48.360;10.958;2022-12-05T05:22:27;96073.53;;;1.88;100.00
56668;BME280;42542;48.360;10.958;2022-12-05T05:25:28;96070.78;;;1.90;100.00
56668;BME280;42542;48.360;10.958;2022-12-05T05:28:30;96076.81;;;1.92;100.00
56668;BME280;42542;48.360;10.958;2022-12-05T05:31:32;96067.94;;;1.93;100.00
56668;BME280;42542;48.360;10.958;2022-12-05T05:34:34;96072.13;;;1.95;100.00
56668;BME280;42542;48.360;10.958;2022-12-05T05:37:35;96069.63;;;1.94;100.00
56668;BME280;42542;48.360;10.958;2022-12-05T05:40:39;96090.38;;;1.99;100.00
56668;BME280;42542;48.360;10.958;2022-12-05T05:43:42;96084.16;;;2.00;100.00
56668;BME280;42542;48.360;10.958;2022-12-05T05:46:43;96082.34;;;2.00;100.00
56668;BME280;42542;48.360;10.958;2022-12-05T05:49:45;96084.16;;;2.00;100.00
56668;BME280;42542;48.360;10.958;2022-12-05T05:52:47;96087.53;;;2.02;100.00
56668;BME280;42542;48.360;10.958;2022-12-05T05:55:48;96097.81;;;2.05;100.00
56668;BME280;42542;48.360;10.958;2022-12-05T05:58:57;96107.41;;;2.06;100.00
56668;BME280;42542;48.360;10.958;2022-12-05T06:01:59;96109.84;;;2.09;100.00
56668;BME280;42542;48.360;10.958;2022-12-05T06:05:02;96111.75;;;2.07;100.00
56668;BME280;42542;48.360;10.958;2022-12-05T06:08:04;96105.72;;;2.05;100.00
56668;BME280;42542;48.360;10.958;2022-12-05T06:11:17;96119.41;;;2.10;100.00
56668;BME280;42542;48.360;10.958;2022-12-05T06:14:26;96125.66;;;2.09;100.00
56668;BME280;42542;48.360;10.958;2022-12-05T06:17:29;96131.63;;;2.11;100.00
56668;BME280;42542;48.360;10.958;2022-12-05T06:20:30;96128.16;;;2.10;100.00
56668;BME280;42542;48.360;10.958;2022-12-05T06:23:32;96123.28;;;2.17;100.00
56668;BME280;42542;48.360;10.958;2022-12-05T06:26:33;96128.34;;;2.20;100.00
56668;BME280;42542;48.360;10.958;2022-12-05T06:29:35;96123.78;;;2.22;100.00
56668;BME280;42542;48.360;10.958;2022-12-05T06:32:37;96133.16;;;2.26;100.00
56668;BME280;42542;48.360;10.958;2022-12-05T06:35:39;96140.00;;;2.28;100.00
56668;BME280;42542;48.360;10.958;2022-12-05T06:38:41;96145.28;;;2.28;100.00
56668;BME280;42542;48.360;10.958;2022-12-05T06:41:43;96146.81;;;2.31;100.00
56668;BME280;42542;48.360;10.958;2022-12-05T06:44:44;96163.38;;;2.33;100.00
56668;BME280;42542;48.360;10.958;2022-12-05T06:47:46;96147.56;;;2.33;100.00
56668;BME280;42542;48.360;10.958;2022-12-05T06:50:51;96146.59;;;2.34;100.00
56668;BME280;42542;48.360;10.958;2022-12-05T06:53:54;96146.50;;;2.35;100.00
56668;BME280;42542;48.360;10.958;2022-12-05T06:56:55;96143.97;;;2.34;100.00
56668;BME280;42542;48.360;10.958;2022-12-05T06:59:57;96150.94;;;2.35;100.00
56668;BME280;42542;48.360;10.958;2022-12-05T07:03:22;96149.03;;;2.37;100.00
56668;BME280;42542;48.360;10.958;2022-12-05T07:06:23;96159.44;;;2.39;100.00
56668;BME280;42542;48.360;10.958;2022-12-05T07:09:25;96163.88;;;2.38;100.00
56668;BME280;42542;48.360;10.958;2022-12-05T07:12:45;96170.00;;;2.39;100.00
56668;BME280;42542;48.360;10.958;2022-12-05T07:15:48;96171.56;;;2.41;100.00
56668;BME280;42542;48.360;10.958;2022-12-05T07:18:49;96170.53;;;2.44;100.00
56668;BME280;42542;48.360;10.958;2022-12-05T07:21:52;96180.13;;;2.45;100.00
56668;BME280;42542;48.360;10.958;2022-12-05T07:24:53;96179.28;;;2.44;100.00
56668;BME280;42542;48.360;10.958;2022-12-05T07:27:55;96182.63;;;2.46;100.00
56668;BME280;42542;48.360;10.958;2022-12-05T07:31:00;96178.09;;;2.48;100.00
56668;BME280;42542;48.360;10.958;2022-12-05T07:34:02;96184.09;;;2.50;100.00
56668;BME280;42542;48.360;10.958;2022-12-05T07:37:04;96188.41;;;2.51;100.00
56668;BME280;42542;48.360;10.958;2022-12-05T07:40:06;96192.00;;;2.50;100.00
56668;BME280;42542;48.360;10.958;2022-12-05T07:43:08;96195.88;;;2.57;100.00
56668;BME280;42542;48.360;10.958;2022-12-05T07:46:10;96202.69;;;2.60;100.00
56668;BME280;42542;48.360;10.958;2022-12-05T07:49:12;96208.63;;;2.63;100.00
56668;BME280;42542;48.360;10.958;2022-12-05T07:52:16;96212.00;;;2.65;100.00
56668;BME280;42542;48.360;10.958;2022-12-05T07:55:17;96211.63;;;2.70;100.00
56668;BME280;42542;48.360;10.958;2022-12-05T07:58:19;96215.84;;;2.72;100.00
56668;BME280;42542;48.360;10.958;2022-12-05T08:01:28;96211.28;;;2.74;100.00
56668;BME280;42542;48.360;10.958;2022-12-05T08:04:29;96217.28;;;2.77;100.00
56668;BME280;42542;48.360;10.958;2022-12-05T08:07:31;96210.13;;;2.79;100.00
56668;BME280;42542;48.360;10.958;2022-12-05T08:10:33;96203.03;;;2.79;100.00
56668;BME280;42542;48.360;10.958;2022-12-05T08:13:35;96210.84;;;2.81;100.00
56668;BME280;42542;48.360;10.958;2022-12-05T08:16:37;96208.22;;;2.81;100.00
56668;BME280;42542;48.360;10.958;2022-12-05T08:19:38;96208.81;;;2.84;100.00
56668;BME280;42542;48.360;10.958;2022-12-05T08:22:40;96224.28;;;2.89;100.00
56668;BME280;42542;48.360;10.958;2022-12-05T08:25:42;96217.84;;;2.93;100.00
56668;BME280;42542;48.360;10.958;2022-12-05T08:28:43;96228.28;;;2.94;100.00
56668;BME280;42542;48.360;10.958;2022-12-05T08:31:48;96227.19;;;2.97;100.00
56668;BME280;42542;48.360;10.958;2022-12-05T08:34:49;96231.41;;;2.99;100.00
56668;BME280;42542;48.360;10.958;2022-12-05T08:37:51;96229.50;;;3.01;100.00
56668;BME280;42542;48.360;10.958;2022-12-05T08:40:53;96229.38;;;3.03;100.00
56668;BME280;42542;48.360;10.958;2022-12-05T08:43:56;96235.16;;;3.08;100.00
56668;BME280;42542;48.360;10.958;2022-12-05T08:46:58;96230.59;;;3.10;100.00
56668;BME280;42542;48.360;10.958;2022-12-05T08:49:59;96234.81;;;3.12;100.00
56668;BME280;42542;48.360;10.958;2022-12-05T08:53:01;96237.34;;;3.14;100.00
56668;BME280;42542;48.360;10.958;2022-12-05T08:56:04;96237.22;;;3.16;100.00
56668;BME280;42542;48.360;10.958;2022-12-05T08:59:06;96240.47;;;3.19;100.00
56668;BME280;42542;48.360;10.958;2022-12-05T09:02:09;96239.41;;;3.22;100.00
56668;BME280;42542;48.360;10.958;2022-12-05T09:05:11;96245.41;;;3.24;100.00
56668;BME280;42542;48.360;10.958;2022-12-05T09:08:28;96248.75;;;3.26;100.00
56668;BME280;42542;48.360;10.958;2022-12-05T09:11:33;96253.47;;;3.33;100.00
56668;BME280;42542;48.360;10.958;2022-12-05T09:14:35;96249.75;;;3.36;100.00
56668;BME280;42542;48.360;10.958;2022-12-05T09:17:37;96259.84;;;3.42;100.00
56668;BME280;42542;48.360;10.958;2022-12-05T09:20:40;96259.63;;;3.45;100.00
56668;BME280;42542;48.360;10.958;2022-12-05T09:23:41;96260.34;;;3.47;100.00
56668;BME280;42542;48.360;10.958;2022-12-05T09:26:44;96267.09;;;3.51;100.00
56668;BME280;42542;48.360;10.958;2022-12-05T09:29:46;96268.41;;;3.57;100.00
56668;BME280;42542;48.360;10.958;2022-12-05T09:32:47;96278.88;;;3.58;100.00
56668;BME280;42542;48.360;10.958;2022-12-05T09:35:49;96283.06;;;3.61;100.00
56668;BME280;42542;48.360;10.958;2022-12-05T09:38:51;96283.06;;;3.61;100.00
56668;BME280;42542;48.360;10.958;2022-12-05T09:45:19;96285.38;;;3.65;100.00
56668;BME280;42542;48.360;10.958;2022-12-05T09:48:23;96285.09;;;3.68;100.00
56668;BME280;42542;48.360;10.958;2022-12-05T09:51:25;96291.25;;;3.69;100.00
56668;BME280;42542;48.360;10.958;2022-12-05T09:54:27;96291.97;;;3.71;100.00
56668;BME280;42542;48.360;10.958;2022-12-05T09:57:34;96291.97;;;3.71;100.00
56668;BME280;42542;48.360;10.958;2022-12-05T10:00:37;96286.31;;;3.75;99.63
56668;BME280;42542;48.360;10.958;2022-12-05T10:03:45;96279.38;;;3.74;99.88
56668;BME280;42542;48.360;10.958;2022-12-05T10:14:07;96283.81;;;3.85;100.00
56668;BME280;42542;48.360;10.958;2022-12-05T10:17:24;96272.16;;;3.87;100.00
56668;BME280;42542;48.360;10.958;2022-12-05T10:20:37;96267.47;;;3.91;100.00
56668;BME280;42542;48.360;10.958;2022-12-05T10:23:53;96268.19;;;3.93;100.00
56668;BME280;42542;48.360;10.958;2022-12-05T10:27:01;96267.34;;;3.92;100.00
56668;BME280;42542;48.360;10.958;2022-12-05T10:33:17;96258.56;;;3.92;99.96
56668;BME280;42542;48.360;10.958;2022-12-05T10:36:23;96268.56;;;4.00;100.00
56668;BME280;42542;48.360;10.958;2022-12-05T10:39:26;96271.94;;;4.02;100.00
56668;BME280;42542;48.360;10.958;2022-12-05T10:42:30;96258.44;;;4.05;100.00
56668;BME280;42542;48.360;10.958;2022-12-05T10:45:35;96263.50;;;4.08;100.00
56668;BME280;42542;48.360;10.958;2022-12-05T10:48:41;96268.53;;;4.11;100.00
56668;BME280;42542;48.360;10.958;2022-12-05T10:51:43;96271.78;;;4.14;100.00
56668;BME280;42542;48.360;10.958;2022-12-05T10:54:48;96268.78;;;4.19;100.00
56668;BME280;42542;48.360;10.958;2022-12-05T10:58:17;96269.50;;;4.21;100.00
56668;BME280;42542;48.360;10.958;2022-12-05T11:01:24;96270.81;;;4.26;100.00
56668;BME280;42542;48.360;10.958;2022-12-05T11:04:28;96260.97;;;4.28;100.00
56668;BME280;42542;48.360;10.958;2022-12-05T11:07:57;96266.84;;;4.32;100.00
56668;BME280;42542;48.360;10.958;2022-12-05T11:14:05;96256.63;;;4.39;100.00
56668;BME280;42542;48.360;10.958;2022-12-05T11:17:35;96257.31;;;4.41;100.00
56668;BME280;42542;48.360;10.958;2022-12-05T11:20:38;96254.56;;;4.42;100.00
56668;BME280;42542;48.360;10.958;2022-12-05T11:23:40;96254.44;;;4.44;100.00
56668;BME280;42542;48.360;10.958;2022-12-05T11:26:42;96258.03;;;4.43;100.00
56668;BME280;42542;48.360;10.958;2022-12-05T11:29:56;96256.13;;;4.45;99.55
56668;BME280;42542;48.360;10.958;2022-12-05T11:33:26;96255.16;;;4.46;99.99
56668;BME280;42542;48.360;10.958;2022-12-05T11:36:36;96265.59;;;4.47;99.92
56668;BME280;42542;48.360;10.958;2022-12-05T11:39:39;96254.31;;;4.45;99.29
56668;BME280;42542;48.360;10.958;2022-12-05T11:46:26;96256.13;;;4.45;99.58
56668;BME280;42542;48.360;10.958;2022-12-05T11:56:41;96258.28;;;4.51;100.00
56668;BME280;42542;48.360;10.958;2022-12-05T12:00:04;96265.13;;;4.53;100.00
56668;BME280;42542;48.360;10.958;2022-12-05T12:13:39;96262.94;;;4.58;100.00
56668;BME280;42542;48.360;10.958;2022-12-05T12:20:20;96251.28;;;4.61;100.00
56668;BME280;42542;48.360;10.958;2022-12-05T12:30:24;96253.19;;;4.59;100.00
56668;BME280;42542;48.360;10.958;2022-12-05T12:33:33;96252.25;;;4.60;100.00
56668;BME280;42542;48.360;10.958;2022-12-05T12:36:47;96253.19;;;4.59;99.89
56668;BME280;42542;48.360;10.958;2022-12-05T12:40:12;96248.88;;;4.58;99.67
56668;BME280;42542;48.360;10.958;2022-12-05T12:46:56;96243.69;;;4.56;99.48
56668;BME280;42542;48.360;10.958;2022-12-05T12:50:27;96256.09;;;4.56;99.36
56668;BME280;42542;48.360;10.958;2022-12-05T12:53:53;96250.91;;;4.54;99.70
56668;BME280;42542;48.360;10.958;2022-12-05T13:04:31;96257.44;;;4.50;99.28
56668;BME280;42542;48.360;10.958;2022-12-05T13:07:38;96257.81;;;4.46;99.38
56668;BME280;42542;48.360;10.958;2022-12-05T13:10:44;96258.78;;;4.45;99.24
56668;BME280;42542;48.360;10.958;2022-12-05T13:13:55;96252.53;;;4.46;99.45
56668;BME280;42542;48.360;10.958;2022-12-05T13:16:59;96242.88;;;4.45;100.00
56668;BME280;42542;48.360;10.958;2022-12-05T13:20:02;96249.03;;;4.45;99.29
56668;BME280;42542;48.360;10.958;2022-12-05T13:23:04;96247.22;;;4.46;99.38
56668;BME280;42542;48.360;10.958;2022-12-05T13:26:10;96249.88;;;4.46;99.07
56668;BME280;42542;48.360;10.958;2022-12-05T13:29:24;96246.22;;;4.47;99.68
56668;BME280;42542;48.360;10.958;2022-12-05T13:32:32;96242.16;;;4.43;98.74
56668;BME280;42542;48.360;10.958;2022-12-05T13:35:36;96247.34;;;4.44;98.94
56668;BME280;42542;48.360;10.958;2022-12-05T13:39:20;96245.53;;;4.45;99.57
56668;BME280;42542;48.360;10.958;2022-12-05T13:42:41;96239.28;;;4.46;99.97
56668;BME280;42542;48.360;10.958;2022-12-05T13:46:11;96237.47;;;4.46;100.00
56668;BME280;42542;48.360;10.958;2022-12-05T13:49:30;96230.72;;;4.42;99.29
56668;BME280;42542;48.360;10.958;2022-12-05T13:52:45;96241.09;;;4.45;99.60
56668;BME280;42542;48.360;10.958;2022-12-05T13:56:02;96247.47;;;4.43;99.01
56668;BME280;42542;48.360;10.958;2022-12-05T13:59:07;96246.28;;;4.36;99.63
56668;BME280;42542;48.360;10.958;2022-12-05T14:05:45;96245.19;;;4.38;99.44
56668;BME280;42542;48.360;10.958;2022-12-05T14:08:51;96243.38;;;4.39;99.63
56668;BME280;42542;48.360;10.958;2022-12-05T14:15:29;96231.34;;;4.35;99.90
56668;BME280;42542;48.360;10.958;2022-12-05T14:18:47;96232.31;;;4.33;99.49
56668;BME280;42542;48.360;10.958;2022-12-05T14:25:57;96256.38;;;4.30;99.49
56668;BME280;42542;48.360;10.958;2022-12-05T14:32:41;96270.69;;;4.28;100.00
56668;BME280;42542;48.360;10.958;2022-12-05T14:35:47;96265.91;;;4.22;99.48
56668;BME280;42542;48.360;10.958;2022-12-05T14:38:49;96271.91;;;4.24;99.84
56668;BME280;42542;48.360;10.958;2022-12-05T14:41:58;96268.53;;;4.22;100.00
56668;BME280;42542;48.360;10.958;2022-12-05T14:45:21;96271.19;;;4.22;100.00
56668;BME280;42542;48.360;10.958;2022-12-05T14:54:42;96280.31;;;4.18;100.00
56668;BME280;42542;48.360;10.958;2022-12-05T14:57:47;96270.84;;;4.15;100.00
56668;BME280;42542;48.360;10.958;2022-12-05T15:00:54;96279.50;;;4.17;100.00
56668;BME280;42542;48.360;10.958;2022-12-05T15:04:17;96285.75;;;4.16;100.00
56668;BME280;42542;48.360;10.958;2022-12-05T15:07:40;96279.72;;;4.14;100.00
56668;BME280;42542;48.360;10.958;2022-12-05T15:10:44;96285.13;;;4.13;100.00
56668;BME280;42542;48.360;10.958;2022-12-05T15:13:48;96286.09;;;4.12;100.00
56668;BME280;42542;48.360;10.958;2022-12-05T15:16:53;96273.97;;;4.09;100.00
56668;BME280;42542;48.360;10.958;2022-12-05T15:20:13;96270.22;;;4.12;100.00
56668;BME280;42542;48.360;10.958;2022-12-05T15:26:49;96248.59;;;4.07;100.00
56668;BME280;42542;48.360;10.958;2022-12-05T15:29:53;96252.94;;;4.08;100.00
56668;BME280;42542;48.360;10.958;2022-12-05T15:32:55;96260.84;;;4.08;100.00
56668;BME280;42542;48.360;10.958;2022-12-05T15:36:00;96258.31;;;4.06;100.00
56668;BME280;42542;48.360;10.958;2022-12-05T15:39:16;96263.63;;;4.06;100.00
56668;BME280;42542;48.360;10.958;2022-12-05T15:42:21;96266.25;;;4.06;100.00
56668;BME280;42542;48.360;10.958;2022-12-05T15:45:30;96273.34;;;4.06;100.00
56668;BME280;42542;48.360;10.958;2022-12-05T15:48:32;96284.78;;;4.06;100.00
56668;BME280;42542;48.360;10.958;2022-12-05T15:51:36;96290.06;;;4.06;100.00
56668;BME280;42542;48.360;10.958;2022-12-05T15:54:38;96297.41;;;4.03;100.00
56668;BME280;42542;48.360;10.958;2022-12-05T15:57:44;96306.06;;;4.05;100.00
56668;BME280;42542;48.360;10.958;2022-12-05T16:00:48;96297.16;;;4.06;100.00
56668;BME280;42542;48.360;10.958;2022-12-05T16:04:35;96298.97;;;4.05;100.00
56668;BME280;42542;48.360;10.958;2022-12-05T16:07:38;96299.91;;;4.04;100.00
56668;BME280;42542;48.360;10.958;2022-12-05T16:10:40;96300.91;;;4.03;100.00
56668;BME280;42542;48.360;10.958;2022-12-05T16:13:48;96304.50;;;4.02;100.00
56668;BME280;42542;48.360;10.958;2022-12-05T16:16:56;96307.16;;;4.02;100.00
56668;BME280;42542;48.360;10.958;2022-12-05T16:20:22;96292.34;;;4.00;100.00
56668;BME280;42542;48.360;10.958;2022-12-05T16:23:26;96289.72;;;4.00;100.00
56668;BME280;42542;48.360;10.958;2022-12-05T16:26:29;96286.22;;;3.99;100.00
56668;BME280;42542;48.360;10.958;2022-12-05T16:29:33;96286.47;;;3.96;100.00
56668;BME280;42542;48.360;10.958;2022-12-05T16:32:35;96281.19;;;3.96;100.00
56668;BME280;42542;48.360;10.958;2022-12-05T16:35:43;96278.53;;;3.96;100.00
56668;BME280;42542;48.360;10.958;2022-12-05T16:38:46;96272.75;;;3.91;100.00
56668;BME280;42542;48.360;10.958;2022-12-05T16:41:48;96273.38;;;3.95;100.00
56668;BME280;42542;48.360;10.958;2022-12-05T16:44:57;96279.63;;;3.93;100.00
56668;BME280;42542;48.360;10.958;2022-12-05T16:48:13;96290.19;;;3.93;100.00
56668;BME280;42542;48.360;10.958;2022-12-05T16:51:21;96292.84;;;3.93;100.00
56668;BME280;42542;48.360;10.958;2022-12-05T16:54:25;96289.34;;;3.93;100.00
56668;BME280;42542;48.360;10.958;2022-12-05T16:57:27;96299.19;;;3.91;100.00
56668;BME280;42542;48.360;10.958;2022-12-05T17:00:29;96300.28;;;3.88;100.00
56668;BME280;42542;48.360;10.958;2022-12-05T17:03:33;96304.00;;;3.86;100.00
56668;BME280;42542;48.360;10.958;2022-12-05T17:06:36;96299.09;;;3.81;100.00
56668;BME280;42542;48.360;10.958;2022-12-05T17:09:39;96304.50;;;3.80;100.00
56668;BME280;42542;48.360;10.958;2022-12-05T17:12:41;96300.28;;;3.77;100.00
56668;BME280;42542;48.360;10.958;2022-12-05T17:15:48;96299.44;;;3.77;100.00
56668;BME280;42542;48.360;10.958;2022-12-05T17:18:51;96294.25;;;3.75;100.00
56668;BME280;42542;48.360;10.958;2022-12-05T17:21:53;96290.75;;;3.75;100.00
56668;BME280;42542;48.360;10.958;2022-12-05T17:24:55;96290.91;;;3.73;100.00
56668;BME280;42542;48.360;10.958;2022-12-05T17:28:00;96302.31;;;3.74;100.00
56668;BME280;42542;48.360;10.958;2022-12-05T17:31:02;96294.63;;;3.71;100.00
56668;BME280;42542;48.360;10.958;2022-12-05T17:34:12;96302.66;;;3.69;100.00
56668;BME280;42542;48.360;10.958;2022-12-05T17:37:15;96300.97;;;3.68;100.00
56668;BME280;42542;48.360;10.958;2022-12-05T17:40:17;96316.13;;;3.66;100.00
56668;BME280;42542;48.360;10.958;2022-12-05T17:43:19;96315.19;;;3.67;100.00
56668;BME280;42542;48.360;10.958;2022-12-05T17:46:25;96310.94;;;3.65;100.00
56668;BME280;42542;48.360;10.958;2022-12-05T17:49:27;96313.72;;;3.63;100.00
56668;BME280;42542;48.360;10.958;2022-12-05T17:52:29;96317.31;;;3.62;100.00
56668;BME280;42542;48.360;10.958;2022-12-05T17:55:31;96311.53;;;3.57;100.00
56668;BME280;42542;48.360;10.958;2022-12-05T17:58:33;96316.09;;;3.55;100.00
56668;BME280;42542;48.360;10.958;2022-12-05T18:01:34;96317.19;;;3.52;100.00
56668;BME280;42542;48.360;10.958;2022-12-05T18:04:36;96304.41;;;3.46;100.00